createdAt,value
2022-09-18T00:00:25.582Z,10.26
2022-09-18T00:02:53.048Z,10.16
2022-09-18T00:05:20.543Z,10.27
2022-09-18T00:07:47.987Z,10.29
2022-09-18T00:10:15.493Z,10.38
2022-09-18T00:12:42.942Z,10.21
2022-09-18T00:15:10.842Z,10.31
2022-09-18T00:17:39.628Z,10.39
2022-09-18T00:20:09.055Z,10.29
2022-09-18T00:22:36.684Z,10.27
2022-09-18T00:25:04.802Z,10.25
2022-09-18T00:27:32.249Z,10.24
2022-09-18T00:29:59.704Z,10.43
2022-09-18T00:32:27.131Z,10.32
2022-09-18T00:34:55.936Z,10.33
2022-09-18T00:37:23.396Z,10.29
2022-09-18T00:39:50.895Z,10.27
2022-09-18T00:42:21.226Z,10.21
2022-09-18T00:44:49.563Z,10.40
2022-09-18T00:47:27.548Z,10.37
2022-09-18T00:50:02.380Z,10.34
2022-09-18T00:52:34.401Z,10.35
2022-09-18T00:55:04.305Z,10.43
2022-09-18T00:57:33.884Z,10.36
2022-09-18T01:00:02.562Z,10.31
2022-09-18T01:02:30.101Z,10.21
2022-09-18T01:04:58.955Z,10.25
2022-09-18T01:07:36.654Z,10.28
2022-09-18T01:10:14.833Z,10.27
2022-09-18T01:12:47.180Z,10.34
2022-09-18T01:15:20.565Z,10.21
2022-09-18T01:17:53.915Z,10.15
2022-09-18T01:20:41.794Z,10.14
2022-09-18T01:23:15.946Z,10.22
2022-09-18T01:25:55.785Z,10.24
2022-09-18T01:28:27.915Z,10.24
2022-09-18T01:30:58.423Z,10.37
2022-09-18T01:33:29.695Z,10.38
2022-09-18T01:36:00.305Z,10.42
2022-09-18T01:38:30.791Z,10.35
2022-09-18T01:41:02.315Z,10.38
2022-09-18T01:43:31.856Z,10.40
2022-09-18T01:46:04.261Z,10.51
2022-09-18T01:48:33.378Z,10.53
2022-09-18T01:51:05.714Z,10.58
2022-09-18T01:53:36.549Z,10.58
2022-09-18T01:56:08.984Z,10.70
2022-09-18T01:58:38.284Z,10.72
2022-09-18T02:01:09.986Z,10.67
2022-09-18T02:03:40.698Z,10.68
2022-09-18T02:06:11.041Z,10.76
2022-09-18T02:08:42.854Z,10.80
2022-09-18T02:11:12.269Z,10.77
2022-09-18T02:13:44.615Z,10.64
2022-09-18T02:16:17.082Z,10.59
2022-09-18T02:18:48.353Z,10.72
2022-09-18T02:21:20.780Z,10.66
2022-09-18T02:23:48.474Z,10.82
2022-09-18T02:26:16.337Z,10.73
2022-09-18T02:28:45.731Z,10.71
2022-09-18T02:31:13.374Z,10.69
2022-09-18T02:33:40.959Z,10.67
2022-09-18T02:36:29.910Z,10.66
2022-09-18T02:39:03.099Z,10.53
2022-09-18T02:41:36.277Z,10.53
2022-09-18T02:44:10.338Z,10.57
2022-09-18T02:46:43.900Z,10.60
2022-09-18T02:49:13.257Z,10.84
2022-09-18T02:51:45.527Z,10.70
2022-09-18T02:54:14.816Z,10.67
2022-09-18T02:56:44.992Z,10.64
2022-09-18T02:59:18.198Z,10.78
2022-09-18T03:01:46.612Z,10.80
2022-09-18T03:04:15.969Z,10.73
2022-09-18T03:06:43.399Z,10.65
2022-09-18T03:09:10.853Z,10.74
2022-09-18T03:11:38.303Z,10.79
2022-09-18T03:14:05.841Z,10.69
2022-09-18T03:16:34.879Z,10.80
2022-09-18T03:19:02.609Z,10.75
2022-09-18T03:21:30.129Z,10.78
2022-09-18T03:23:57.863Z,10.91
2022-09-18T03:26:25.448Z,10.86
2022-09-18T03:28:52.910Z,10.91
2022-09-18T03:31:20.544Z,10.86
2022-09-18T03:33:49.368Z,10.83
2022-09-18T03:36:16.795Z,10.83
2022-09-18T03:38:44.253Z,10.81
2022-09-18T03:41:11.712Z,10.95
2022-09-18T03:43:39.688Z,10.83
2022-09-18T03:46:07.158Z,11.02
2022-09-18T03:48:34.693Z,10.98
2022-09-18T03:51:03.461Z,10.99
2022-09-18T03:53:30.905Z,10.85
2022-09-18T03:55:58.332Z,10.82
2022-09-18T03:58:25.796Z,10.77
2022-09-18T04:00:53.243Z,10.74
2022-09-18T04:03:20.746Z,10.86
2022-09-18T04:05:49.552Z,10.84
2022-09-18T04:08:19.165Z,10.91
2022-09-18T04:10:48.470Z,10.91
2022-09-18T04:13:16.264Z,10.89
2022-09-18T04:15:45.146Z,10.91
2022-09-18T04:18:12.707Z,10.91
2022-09-18T04:20:40.180Z,10.98
2022-09-18T04:23:07.642Z,10.95
2022-09-18T04:25:36.449Z,10.91
2022-09-18T04:28:03.961Z,10.95
2022-09-18T04:30:31.379Z,10.91
2022-09-18T04:32:58.838Z,11.03
2022-09-18T04:35:26.574Z,11.11
2022-09-18T04:37:54.056Z,11.05
2022-09-18T04:40:22.049Z,10.97
2022-09-18T04:42:50.960Z,10.94
2022-09-18T04:45:18.606Z,10.91
2022-09-18T04:47:46.355Z,10.95
2022-09-18T04:50:15.046Z,10.97
2022-09-18T04:52:42.496Z,11.04
2022-09-18T04:55:10.511Z,11.13
2022-09-18T04:57:37.988Z,11.00
2022-09-18T05:00:09.315Z,10.99
2022-09-18T05:02:38.730Z,11.03
2022-09-18T05:05:06.841Z,11.00
2022-09-18T05:07:34.292Z,11.08
2022-09-18T05:10:04.913Z,11.07
2022-09-18T05:12:32.650Z,11.14
2022-09-18T05:15:00.721Z,11.23
2022-09-18T05:17:29.717Z,11.14
2022-09-18T05:19:57.378Z,11.17
2022-09-18T05:22:25.249Z,11.19
2022-09-18T05:24:53.029Z,11.22
2022-09-18T05:27:26.119Z,11.31
2022-09-18T05:29:54.483Z,11.22
2022-09-18T05:32:24.398Z,11.28
2022-09-18T05:34:53.384Z,11.21
2022-09-18T05:37:21.221Z,11.26
2022-09-18T05:39:48.858Z,11.25
2022-09-18T05:42:16.673Z,11.31
2022-09-18T05:44:44.327Z,11.19
2022-09-18T05:47:12.109Z,11.20
2022-09-18T05:49:39.919Z,11.13
2022-09-18T05:52:09.388Z,11.23
2022-09-18T05:54:37.005Z,11.24
2022-09-18T05:57:04.902Z,11.27
2022-09-18T05:59:32.455Z,11.22
2022-09-18T06:02:00.079Z,11.34
2022-09-18T06:04:27.757Z,11.23
2022-09-18T06:06:55.409Z,11.22
2022-09-18T06:09:24.348Z,11.26
2022-09-18T06:11:53.344Z,11.27
2022-09-18T06:14:22.992Z,11.29
2022-09-18T06:16:50.700Z,11.35
2022-09-18T06:19:18.373Z,11.37
2022-09-18T06:21:47.011Z,11.30
2022-09-18T06:24:15.038Z,11.23
2022-09-18T06:26:44.168Z,11.27
2022-09-18T06:29:14.652Z,11.30
2022-09-18T06:31:43.033Z,11.51
2022-09-18T06:34:12.029Z,11.52
2022-09-18T06:36:39.855Z,11.28
2022-09-18T06:39:08.062Z,11.44
2022-09-18T06:41:35.831Z,11.42
2022-09-18T06:44:04.817Z,11.43
2022-09-18T06:46:32.597Z,11.51
2022-09-18T06:49:00.281Z,11.48
2022-09-18T06:51:27.894Z,11.43
2022-09-18T06:53:55.508Z,11.49
2022-09-18T06:56:23.139Z,11.49
2022-09-18T06:58:53.115Z,11.57
2022-09-18T07:01:24.296Z,11.51
2022-09-18T07:03:52.030Z,11.62
2022-09-18T07:06:19.707Z,11.66
2022-09-18T07:08:47.345Z,11.66
2022-09-18T07:11:15.011Z,11.71
2022-09-18T07:13:42.737Z,11.65
2022-09-18T07:16:10.677Z,11.73
2022-09-18T07:18:39.811Z,11.75
2022-09-18T07:21:07.402Z,11.77
2022-09-18T07:23:35.781Z,11.79
2022-09-18T07:26:04.140Z,11.89
2022-09-18T07:28:31.937Z,11.79
2022-09-18T07:31:04.137Z,11.99
2022-09-18T07:33:32.328Z,11.91
2022-09-18T07:36:02.193Z,11.95
2022-09-18T07:38:30.129Z,11.77
2022-09-18T07:40:57.700Z,11.79
2022-09-18T07:43:25.420Z,11.80
2022-09-18T07:45:52.955Z,11.81
2022-09-18T07:48:20.644Z,11.74
2022-09-18T07:50:48.409Z,11.81
2022-09-18T07:53:18.616Z,11.77
2022-09-18T07:55:47.917Z,11.92
2022-09-18T07:58:15.730Z,11.86
2022-09-18T08:00:43.222Z,11.93
2022-09-18T08:03:12.357Z,12.00
2022-09-18T08:05:40.664Z,12.14
2022-09-18T08:08:10.024Z,12.12
2022-09-18T08:10:39.214Z,12.27
2022-09-18T08:13:07.791Z,12.18
2022-09-18T08:15:37.379Z,12.31
2022-09-18T08:18:05.071Z,12.46
2022-09-18T08:20:32.561Z,12.49
2022-09-18T08:23:00.098Z,12.67
2022-09-18T08:25:28.366Z,12.59
2022-09-18T08:27:59.749Z,12.61
2022-09-18T08:30:27.196Z,12.79
2022-09-18T08:32:58.698Z,12.80
2022-09-18T08:35:26.176Z,12.75
2022-09-18T08:37:53.722Z,12.85
2022-09-18T08:40:24.294Z,12.97
2022-09-18T08:43:03.917Z,12.99
2022-09-18T08:45:40.154Z,13.12
2022-09-18T08:48:12.841Z,13.04
2022-09-18T08:50:41.881Z,13.13
2022-09-18T08:53:14.322Z,13.09
2022-09-18T08:55:44.134Z,13.17
2022-09-18T08:58:15.420Z,13.02
2022-09-18T09:00:45.163Z,13.01
2022-09-18T09:03:21.682Z,13.09
2022-09-18T09:05:52.292Z,12.99
2022-09-18T09:08:32.161Z,12.87
2022-09-18T09:11:03.827Z,12.85
2022-09-18T09:13:54.962Z,12.98
2022-09-18T09:16:27.094Z,12.99
2022-09-18T09:19:00.078Z,12.95
2022-09-18T09:21:41.628Z,13.06
2022-09-18T09:24:20.886Z,13.02
2022-09-18T09:26:49.988Z,13.11
2022-09-18T09:29:23.148Z,13.22
2022-09-18T09:31:53.900Z,13.33
2022-09-18T09:34:23.338Z,13.41
2022-09-18T09:36:53.348Z,13.50
2022-09-18T09:39:23.935Z,13.58
2022-09-18T09:41:54.777Z,13.63
2022-09-18T09:44:31.723Z,13.66
2022-09-18T09:47:02.498Z,13.71
2022-09-18T09:49:32.952Z,13.65
2022-09-18T09:52:09.099Z,13.67
2022-09-18T09:54:37.209Z,13.50
2022-09-18T09:57:11.084Z,13.45
2022-09-18T09:59:47.257Z,13.52
2022-09-18T10:02:31.167Z,13.67
2022-09-18T10:05:04.383Z,13.87
2022-09-18T10:07:36.030Z,13.94
2022-09-18T10:10:08.418Z,14.12
2022-09-18T10:12:44.435Z,14.08
2022-09-18T10:15:17.778Z,13.98
2022-09-18T10:17:46.257Z,13.96
2022-09-18T10:20:16.411Z,14.00
2022-09-18T10:22:44.479Z,13.83
2022-09-18T10:25:18.207Z,13.64
2022-09-18T10:27:45.694Z,13.38
2022-09-18T10:30:16.339Z,13.34
2022-09-18T10:32:43.885Z,13.16
2022-09-18T10:35:44.766Z,13.42
2022-09-18T10:38:35.177Z,13.26
2022-09-18T10:41:17.566Z,13.28
2022-09-18T10:43:58.310Z,13.31
2022-09-18T10:46:30.444Z,13.31
2022-09-18T10:49:00.468Z,13.20
2022-09-18T10:51:29.270Z,13.21
2022-09-18T10:54:05.934Z,13.22
2022-09-18T10:56:33.729Z,13.14
2022-09-18T10:59:32.075Z,13.06
2022-09-18T11:02:02.330Z,13.28
2022-09-18T11:04:30.164Z,13.47
2022-09-18T11:06:58.910Z,13.49
2022-09-18T11:09:31.858Z,13.47
2022-09-18T11:12:00.851Z,13.57
2022-09-18T11:14:30.931Z,13.60
2022-09-18T11:17:01.930Z,13.63
2022-09-18T11:19:31.082Z,13.58
2022-09-18T11:22:01.080Z,13.71
2022-09-18T11:24:31.228Z,13.69
2022-09-18T11:26:59.924Z,13.75
2022-09-18T11:29:32.402Z,13.85
2022-09-18T11:32:05.372Z,13.85
2022-09-18T11:34:34.607Z,13.82
2022-09-18T11:37:04.003Z,13.64
2022-09-18T11:39:36.391Z,13.76
2022-09-18T11:42:10.045Z,13.65
2022-09-18T11:44:39.716Z,13.64
2022-09-18T11:47:23.142Z,13.55
2022-09-18T11:49:57.084Z,13.46
2022-09-18T11:52:29.222Z,13.58
2022-09-18T11:54:59.502Z,13.52
2022-09-18T11:57:29.997Z,13.49
2022-09-18T11:59:59.755Z,13.48
2022-09-18T12:02:34.871Z,13.53
2022-09-18T12:05:10.888Z,13.63
2022-09-18T12:07:41.976Z,13.65
2022-09-18T12:10:16.488Z,13.61
2022-09-18T12:12:45.962Z,13.61
2022-09-18T12:15:16.905Z,13.58
2022-09-18T12:17:50.055Z,13.57
2022-09-18T12:20:22.695Z,13.63
2022-09-18T12:22:53.674Z,13.64
2022-09-18T12:25:25.986Z,13.65
2022-09-18T12:27:57.369Z,13.72
2022-09-18T12:30:29.338Z,13.70
2022-09-18T12:33:09.491Z,13.68
2022-09-18T12:35:48.428Z,13.70
2022-09-18T12:38:23.565Z,13.87
2022-09-18T12:41:07.769Z,13.79
2022-09-18T12:43:51.248Z,13.80
2022-09-18T12:46:33.633Z,13.75
2022-09-18T12:49:18.219Z,13.81
2022-09-18T12:51:47.795Z,13.83
2022-09-18T12:54:44.306Z,13.78
2022-09-18T12:57:20.694Z,13.75
2022-09-18T12:59:55.807Z,13.84
2022-09-18T13:02:29.049Z,13.87
2022-09-18T13:05:03.160Z,13.93
2022-09-18T13:07:33.227Z,13.89
2022-09-18T13:10:05.295Z,13.92
2022-09-18T13:12:37.585Z,13.88
2022-09-18T13:15:10.908Z,14.00
2022-09-18T13:17:43.921Z,13.89
2022-09-18T13:20:17.312Z,14.00
2022-09-18T13:22:46.936Z,14.01
2022-09-18T13:25:27.108Z,13.99
2022-09-18T13:27:55.514Z,14.04
2022-09-18T13:30:31.812Z,14.00
2022-09-18T13:33:02.801Z,14.09
2022-09-18T13:35:34.104Z,14.02
2022-09-18T13:38:14.934Z,14.02
2022-09-18T13:40:44.713Z,14.20
2022-09-18T13:43:19.301Z,14.21
2022-09-18T13:45:47.157Z,14.27
2022-09-18T13:48:21.975Z,14.32
2022-09-18T13:50:54.117Z,14.26
2022-09-18T13:53:32.700Z,14.28
2022-09-18T13:56:01.737Z,14.32
2022-09-18T13:58:50.051Z,14.23
2022-09-18T14:02:01.494Z,14.23
2022-09-18T14:05:10.104Z,14.17
2022-09-18T14:08:14.523Z,14.12
2022-09-18T14:11:15.720Z,14.01
2022-09-18T14:13:48.905Z,14.01
2022-09-18T14:16:29.503Z,13.97
2022-09-18T14:19:00.851Z,14.09
2022-09-18T14:21:31.917Z,14.02
2022-09-18T14:24:25.358Z,14.06
2022-09-18T14:27:18.895Z,14.09
2022-09-18T14:29:48.858Z,14.04
2022-09-18T14:32:20.407Z,14.01
2022-09-18T14:34:48.699Z,14.09
2022-09-18T14:37:27.873Z,13.91
2022-09-18T14:39:58.776Z,13.93
2022-09-18T14:42:33.504Z,13.87
2022-09-18T14:45:20.334Z,13.77
2022-09-18T14:47:50.097Z,13.72
2022-09-18T14:50:30.786Z,13.65
2022-09-18T14:52:59.746Z,13.64
2022-09-18T14:55:35.045Z,13.69
2022-09-18T14:58:05.639Z,13.58
2022-09-18T15:00:38.347Z,13.66
2022-09-18T15:03:10.797Z,13.60
2022-09-18T15:05:38.824Z,13.58
2022-09-18T15:08:08.349Z,13.65
2022-09-18T15:10:39.949Z,13.56
2022-09-18T15:13:09.458Z,13.49
2022-09-18T15:15:39.646Z,13.49
2022-09-18T15:18:18.914Z,13.53
2022-09-18T15:20:50.347Z,13.49
2022-09-18T15:23:19.803Z,13.48
2022-09-18T15:25:59.144Z,13.53
2022-09-18T15:28:28.282Z,13.49
2022-09-18T15:31:00.852Z,13.42
2022-09-18T15:33:28.960Z,13.42
2022-09-18T15:35:57.502Z,13.27
2022-09-18T15:38:26.968Z,13.33
2022-09-18T15:40:56.024Z,13.35
2022-09-18T15:43:43.613Z,13.26
2022-09-18T15:46:12.949Z,13.22
2022-09-18T15:48:46.306Z,13.26
2022-09-18T15:51:16.054Z,13.20
2022-09-18T15:54:02.486Z,13.11
2022-09-18T15:56:34.050Z,13.07
2022-09-18T15:59:05.848Z,13.03
2022-09-18T16:01:36.223Z,13.15
2022-09-18T16:04:18.056Z,13.08
2022-09-18T16:06:52.756Z,13.14
2022-09-18T16:09:43.786Z,12.91
2022-09-18T16:13:14.019Z,12.91
2022-09-18T16:15:47.371Z,12.89
2022-09-18T16:18:33.017Z,13.01
2022-09-18T16:21:05.469Z,12.76
2022-09-18T16:23:35.682Z,12.70
2022-09-18T16:26:11.725Z,12.63
2022-09-18T16:28:44.505Z,12.71
2022-09-18T16:31:15.474Z,12.63
2022-09-18T16:33:55.282Z,12.55
2022-09-18T16:36:33.099Z,12.52
2022-09-18T16:39:02.448Z,12.48
2022-09-18T16:41:36.264Z,12.34
2022-09-18T16:44:06.936Z,12.39
2022-09-18T16:46:39.565Z,12.27
2022-09-18T16:49:10.616Z,12.44
2022-09-18T16:51:38.688Z,12.46
2022-09-18T16:54:06.987Z,12.41
2022-09-18T16:56:36.892Z,12.44
2022-09-18T16:59:04.832Z,12.45
2022-09-18T17:01:54.137Z,12.21
2022-09-18T17:04:24.190Z,12.15
2022-09-18T17:06:51.630Z,12.19
2022-09-18T17:09:19.381Z,12.20
2022-09-18T17:11:47.191Z,12.09
2022-09-18T17:14:14.714Z,12.00
2022-09-18T17:16:44.820Z,12.17
2022-09-18T17:19:15.162Z,11.96
2022-09-18T17:21:42.935Z,11.96
2022-09-18T17:24:10.985Z,11.92
2022-09-18T17:26:39.715Z,11.85
2022-09-18T17:29:08.210Z,11.75
2022-09-18T17:31:35.705Z,11.76
2022-09-18T17:34:05.666Z,11.72
2022-09-18T17:36:35.855Z,11.83
2022-09-18T17:39:03.769Z,11.80
2022-09-18T17:41:33.097Z,11.80
2022-09-18T17:44:00.775Z,11.76
2022-09-18T17:46:28.575Z,11.81
2022-09-18T17:48:56.635Z,11.78
2022-09-18T17:51:28.720Z,11.83
2022-09-18T17:53:58.913Z,11.74
2022-09-18T17:56:29.929Z,11.89
2022-09-18T17:58:59.593Z,11.78
2022-09-18T18:01:28.816Z,11.85
2022-09-18T18:03:57.218Z,11.78
2022-09-18T18:06:26.374Z,11.58
2022-09-18T18:08:54.211Z,11.56
2022-09-18T18:11:23.719Z,11.71
2022-09-18T18:13:52.253Z,11.75
2022-09-18T18:16:23.605Z,11.71
2022-09-18T18:18:52.179Z,11.54
2022-09-18T18:21:19.886Z,11.59
2022-09-18T18:23:49.059Z,11.62
2022-09-18T18:26:16.784Z,11.56
2022-09-18T18:28:45.164Z,11.49
2022-09-18T18:31:14.498Z,11.55
2022-09-18T18:33:43.588Z,11.36
2022-09-18T18:36:13.056Z,11.44
2022-09-18T18:38:41.404Z,11.37
2022-09-18T18:41:12.450Z,11.41
2022-09-18T18:43:41.104Z,11.48
2022-09-18T18:46:12.756Z,11.49
2022-09-18T18:48:41.040Z,11.38
2022-09-18T18:51:10.061Z,11.43
2022-09-18T18:53:38.656Z,11.47
2022-09-18T18:56:08.411Z,11.96
2022-09-18T18:58:37.793Z,11.82
2022-09-18T19:01:06.426Z,11.49
2022-09-18T19:03:39.333Z,11.13
2022-09-18T19:06:07.848Z,10.96
2022-09-18T19:08:35.811Z,10.76
2022-09-18T19:11:05.668Z,10.66
2022-09-18T19:13:44.209Z,10.59
2022-09-18T19:16:14.485Z,10.47
2022-09-18T19:18:42.356Z,10.40
2022-09-18T19:21:09.983Z,10.36
2022-09-18T19:23:37.761Z,10.32
2022-09-18T19:26:05.607Z,10.27
2022-09-18T19:28:34.123Z,10.25
2022-09-18T19:31:05.509Z,10.22
2022-09-18T19:33:34.494Z,10.20
2022-09-18T19:36:06.001Z,10.33
2022-09-18T19:38:36.367Z,10.24
2022-09-18T19:41:06.077Z,10.08
2022-09-18T19:43:37.164Z,10.26
2022-09-18T19:46:05.872Z,10.16
2022-09-18T19:48:35.023Z,10.28
2022-09-18T19:51:02.672Z,10.19
2022-09-18T19:53:31.134Z,10.26
2022-09-18T19:55:59.138Z,10.10
2022-09-18T19:58:27.254Z,10.19
2022-09-18T20:00:55.126Z,10.17
2022-09-18T20:03:22.830Z,10.16
2022-09-18T20:05:51.940Z,10.24
2022-09-18T20:08:19.579Z,10.27
2022-09-18T20:10:48.309Z,10.01
2022-09-18T20:13:15.932Z,10.03
2022-09-18T20:15:45.314Z,10.16
2022-09-18T20:18:13.363Z,10.08
2022-09-18T20:20:42.487Z,9.93
2022-09-18T20:23:11.769Z,10.01
2022-09-18T20:25:40.184Z,9.86
2022-09-18T20:28:07.825Z,9.57
2022-09-18T20:30:35.466Z,9.34
2022-09-18T20:33:04.263Z,9.33
2022-09-18T20:35:31.934Z,9.27
2022-09-18T20:38:04.055Z,9.27
2022-09-18T20:40:33.732Z,9.30
2022-09-18T20:43:04.291Z,9.23
2022-09-18T20:45:31.908Z,9.24
2022-09-18T20:48:03.990Z,9.32
2022-09-18T20:50:31.490Z,9.39
2022-09-18T20:53:02.345Z,9.35
2022-09-18T20:55:30.006Z,9.22
2022-09-18T20:58:02.132Z,9.18
2022-09-18T21:00:30.154Z,9.21
2022-09-18T21:02:57.770Z,9.25
2022-09-18T21:05:27.078Z,9.29
2022-09-18T21:08:00.745Z,9.21
2022-09-18T21:10:30.452Z,9.17
2022-09-18T21:12:59.763Z,9.31
2022-09-18T21:15:28.573Z,9.34
2022-09-18T21:17:55.989Z,9.40
2022-09-18T21:20:23.666Z,9.36
2022-09-18T21:23:08.739Z,9.24
2022-09-18T21:25:36.284Z,9.44
2022-09-18T21:28:05.949Z,9.28
2022-09-18T21:30:33.416Z,9.20
2022-09-18T21:33:01.743Z,9.05
2022-09-18T21:35:29.173Z,9.31
2022-09-18T21:37:56.632Z,9.01
2022-09-18T21:40:24.416Z,9.01
2022-09-18T21:42:52.962Z,8.99
2022-09-18T21:45:21.746Z,8.94
2022-09-18T21:47:50.673Z,9.00
2022-09-18T21:50:19.088Z,9.03
2022-09-18T21:52:46.506Z,9.22
2022-09-18T21:55:13.950Z,8.86
2022-09-18T21:57:41.398Z,8.62
2022-09-18T22:00:10.037Z,8.62
2022-09-18T22:02:43.142Z,8.41
2022-09-18T22:05:11.638Z,8.50
2022-09-18T22:07:39.190Z,8.41
2022-09-18T22:10:08.025Z,8.42
2022-09-18T22:12:38.941Z,8.59
2022-09-18T22:15:07.321Z,8.57
2022-09-18T22:17:39.251Z,8.42
2022-09-18T22:20:07.823Z,8.42
2022-09-18T22:22:35.326Z,8.46
2022-09-18T22:25:03.181Z,8.28
2022-09-18T22:27:30.615Z,8.34
2022-09-18T22:29:58.042Z,8.31
2022-09-18T22:32:25.836Z,8.23
2022-09-18T22:34:54.622Z,8.28
2022-09-18T22:37:22.284Z,8.43
2022-09-18T22:39:49.716Z,8.26
2022-09-18T22:42:17.392Z,8.13
2022-09-18T22:44:44.873Z,8.15
2022-09-18T22:47:12.510Z,8.14
2022-09-18T22:49:39.930Z,8.18
2022-09-18T22:52:08.684Z,8.07
2022-09-18T22:54:36.177Z,8.04
2022-09-18T22:57:03.779Z,7.97
2022-09-18T22:59:31.211Z,7.91
2022-09-18T23:02:00.044Z,7.85
2022-09-18T23:04:30.969Z,7.95
2022-09-18T23:06:59.336Z,7.94
2022-09-18T23:09:29.118Z,7.88
2022-09-18T23:11:57.631Z,8.00
2022-09-18T23:14:27.553Z,8.19
2022-09-18T23:16:55.919Z,8.24
2022-09-18T23:19:25.868Z,8.17
2022-09-18T23:21:54.138Z,8.27
2022-09-18T23:24:22.281Z,8.20
2022-09-18T23:26:52.647Z,8.19
2022-09-18T23:29:21.242Z,8.30
2022-09-18T23:31:52.759Z,8.20
2022-09-18T23:34:22.025Z,8.17
2022-09-18T23:36:51.240Z,8.12
2022-09-18T23:39:21.301Z,8.18
2022-09-18T23:41:49.156Z,8.04
2022-09-18T23:44:19.127Z,8.11
2022-09-18T23:46:47.443Z,8.09
2022-09-18T23:49:15.833Z,8.05
2022-09-18T23:51:45.949Z,8.20
2022-09-18T23:54:16.555Z,8.41
2022-09-18T23:56:44.196Z,8.34
2022-09-18T23:59:13.069Z,8.44
